createdAt,value
2022-07-27T00:01:08.220Z,99.90
2022-07-27T00:03:36.468Z,99.90
2022-07-27T00:06:04.746Z,99.90
2022-07-27T00:08:32.714Z,99.90
2022-07-27T00:11:01.201Z,99.90
2022-07-27T00:13:29.176Z,99.90
2022-07-27T00:15:57.436Z,99.90
2022-07-27T00:18:27.204Z,99.90
2022-07-27T00:20:55.262Z,99.90
2022-07-27T00:23:23.385Z,99.90
2022-07-27T00:25:51.721Z,99.90
2022-07-27T00:28:19.815Z,99.90
2022-07-27T00:30:47.830Z,99.90
2022-07-27T00:33:17.179Z,99.90
2022-07-27T00:35:46.880Z,99.90
2022-07-27T00:38:14.801Z,99.90
2022-07-27T00:40:43.196Z,99.90
2022-07-27T00:43:11.238Z,99.90
2022-07-27T00:45:39.301Z,99.90
2022-07-27T00:48:07.535Z,99.90
2022-07-27T00:50:36.177Z,99.90
2022-07-27T00:53:06.102Z,99.90
2022-07-27T00:55:35.292Z,99.90
2022-07-27T00:58:05.957Z,99.90
2022-07-27T01:00:34.010Z,99.90
2022-07-27T01:03:02.642Z,99.90
2022-07-27T01:05:42.539Z,99.90
2022-07-27T01:08:14.679Z,99.90
2022-07-27T01:10:44.180Z,99.90
2022-07-27T01:13:13.533Z,99.90
2022-07-27T01:15:43.117Z,99.90
2022-07-27T01:18:15.103Z,99.90
2022-07-27T01:20:44.124Z,99.90
2022-07-27T01:23:13.607Z,99.90
2022-07-27T01:25:44.605Z,99.90
2022-07-27T01:28:12.723Z,99.90
2022-07-27T01:30:40.898Z,99.90
2022-07-27T01:33:10.568Z,99.90
2022-07-27T01:35:40.496Z,99.90
2022-07-27T01:38:10.316Z,99.90
2022-07-27T01:40:40.511Z,99.90
2022-07-27T01:43:08.519Z,99.90
2022-07-27T01:45:36.442Z,99.90
2022-07-27T01:48:04.742Z,99.90
2022-07-27T01:50:33.020Z,99.90
2022-07-27T01:53:01.167Z,99.90
2022-07-27T01:55:35.733Z,99.90
2022-07-27T01:58:08.666Z,99.90
2022-07-27T02:00:37.236Z,99.90
2022-07-27T02:03:07.126Z,99.90
2022-07-27T02:05:35.634Z,99.90
2022-07-27T02:08:04.360Z,99.90
2022-07-27T02:10:32.820Z,99.90
2022-07-27T02:12:59.865Z,99.90
2022-07-27T02:15:42.283Z,99.90
2022-07-27T02:18:26.677Z,99.90
2022-07-27T02:21:00.639Z,99.90
2022-07-27T02:23:29.022Z,99.90
2022-07-27T02:25:57.257Z,99.90
2022-07-27T02:28:25.242Z,99.90
2022-07-27T02:30:54.875Z,99.90
2022-07-27T02:33:23.108Z,99.90
2022-07-27T02:35:52.067Z,99.90
2022-07-27T02:38:20.289Z,99.90
2022-07-27T02:40:48.345Z,99.90
2022-07-27T02:43:16.437Z,99.90
2022-07-27T02:45:44.415Z,99.90
2022-07-27T02:48:16.378Z,99.90
2022-07-27T02:50:44.458Z,99.90
2022-07-27T02:53:12.452Z,99.90
2022-07-27T02:55:40.454Z,99.90
2022-07-27T02:58:08.655Z,99.90
2022-07-27T03:00:36.668Z,99.90
2022-07-27T03:03:04.972Z,99.90
2022-07-27T03:05:34.526Z,99.90
2022-07-27T03:08:03.982Z,99.90
2022-07-27T03:10:32.071Z,99.90
2022-07-27T03:13:00.130Z,99.90
2022-07-27T03:15:29.692Z,99.90
2022-07-27T03:17:58.030Z,99.90
2022-07-27T03:20:25.960Z,99.90
2022-07-27T03:22:55.411Z,99.90
2022-07-27T03:25:23.753Z,99.90
2022-07-27T03:27:51.819Z,99.90
2022-07-27T03:30:19.945Z,99.90
2022-07-27T03:32:48.899Z,99.90
2022-07-27T03:35:16.978Z,99.90
2022-07-27T03:37:47.783Z,99.90
2022-07-27T03:40:17.311Z,99.90
2022-07-27T03:42:45.694Z,99.90
2022-07-27T03:45:13.754Z,99.90
2022-07-27T03:47:41.876Z,99.90
2022-07-27T03:50:10.460Z,99.90
2022-07-27T03:52:38.300Z,99.90
2022-07-27T03:55:07.433Z,99.90
2022-07-27T03:57:36.782Z,99.90
2022-07-27T04:00:06.967Z,99.90
2022-07-27T04:02:35.130Z,99.90
2022-07-27T04:05:03.165Z,99.90
2022-07-27T04:07:31.150Z,99.90
2022-07-27T04:09:59.528Z,99.90
2022-07-27T04:12:27.919Z,99.90
2022-07-27T04:14:58.132Z,99.90
2022-07-27T04:17:55.467Z,99.90
2022-07-27T04:20:14.836Z,99.90
2022-07-27T04:22:42.854Z,99.90
2022-07-27T04:25:11.802Z,99.90
2022-07-27T04:27:39.811Z,99.90
2022-07-27T04:30:10.528Z,99.90
2022-07-27T04:32:38.995Z,99.90
2022-07-27T04:35:08.349Z,99.90
2022-07-27T04:37:36.736Z,99.90
2022-07-27T04:40:05.669Z,99.90
2022-07-27T04:42:33.711Z,99.90
2022-07-27T04:45:01.736Z,99.90
2022-07-27T04:47:31.232Z,99.90
2022-07-27T04:49:59.287Z,99.90
2022-07-27T04:52:27.349Z,99.90
2022-07-27T04:54:56.913Z,99.90
2022-07-27T04:57:25.088Z,99.90
2022-07-27T04:59:53.025Z,99.90
2022-07-27T05:02:20.937Z,99.90
2022-07-27T05:04:50.368Z,99.90
2022-07-27T05:07:18.341Z,99.90
2022-07-27T05:09:46.706Z,99.90
2022-07-27T05:12:14.669Z,99.90
2022-07-27T05:14:42.770Z,99.90
2022-07-27T05:17:10.848Z,99.90
2022-07-27T05:19:40.719Z,99.90
2022-07-27T05:22:10.774Z,99.90
2022-07-27T05:24:38.784Z,99.90
2022-07-27T05:27:07.118Z,99.90
2022-07-27T05:29:35.181Z,99.90
2022-07-27T05:32:03.141Z,99.90
2022-07-27T05:34:31.155Z,99.90
2022-07-27T05:36:59.149Z,99.90
2022-07-27T05:39:28.504Z,99.90
2022-07-27T05:41:56.532Z,99.90
2022-07-27T05:44:25.278Z,99.90
2022-07-27T05:46:53.214Z,99.90
2022-07-27T05:49:21.610Z,99.90
2022-07-27T05:51:50.647Z,99.90
2022-07-27T05:54:19.346Z,99.90
2022-07-27T05:56:48.853Z,99.90
2022-07-27T05:59:16.996Z,99.90
2022-07-27T06:01:45.023Z,99.90
2022-07-27T06:04:14.500Z,99.90
2022-07-27T06:07:00.523Z,99.90
2022-07-27T06:09:28.600Z,99.90
2022-07-27T06:11:58.040Z,99.90
2022-07-27T06:14:26.051Z,99.90
2022-07-27T06:16:54.730Z,99.90
2022-07-27T06:19:23.013Z,99.90
2022-07-27T06:21:53.848Z,99.90
2022-07-27T06:24:22.012Z,99.90
2022-07-27T06:26:50.268Z,99.90
2022-07-27T06:29:19.635Z,99.90
2022-07-27T06:31:47.689Z,99.90
2022-07-27T06:34:15.896Z,99.90
2022-07-27T06:36:45.358Z,99.90
2022-07-27T06:39:13.879Z,99.90
2022-07-27T06:41:42.100Z,99.90
2022-07-27T06:44:10.150Z,99.90
2022-07-27T06:46:39.686Z,99.90
2022-07-27T06:49:08.076Z,99.90
2022-07-27T06:51:36.037Z,99.90
2022-07-27T06:54:05.564Z,99.90
2022-07-27T06:56:34.083Z,99.90
2022-07-27T06:59:02.182Z,99.90
2022-07-27T07:01:30.293Z,99.90
2022-07-27T07:04:00.231Z,99.90
2022-07-27T07:06:28.481Z,99.90
2022-07-27T07:08:56.488Z,99.90
2022-07-27T07:11:24.513Z,99.90
2022-07-27T07:13:52.433Z,99.90
2022-07-27T07:16:20.532Z,99.90
2022-07-27T07:18:52.318Z,99.90
2022-07-27T07:21:22.125Z,99.90
2022-07-27T07:23:50.313Z,99.90
2022-07-27T07:26:18.438Z,99.90
2022-07-27T07:28:46.705Z,99.90
2022-07-27T07:31:14.806Z,99.90
2022-07-27T07:33:43.237Z,99.90
2022-07-27T07:36:13.664Z,99.90
2022-07-27T07:38:44.147Z,99.90
2022-07-27T07:41:12.172Z,99.90
2022-07-27T07:43:42.229Z,99.90
2022-07-27T07:46:10.472Z,99.90
2022-07-27T07:48:39.754Z,99.90
2022-07-27T07:51:07.923Z,99.90
2022-07-27T07:53:41.135Z,99.90
2022-07-27T07:56:11.158Z,99.90
2022-07-27T07:58:39.159Z,99.90
2022-07-27T08:01:07.284Z,99.90
2022-07-27T08:03:35.831Z,99.90
2022-07-27T08:06:03.825Z,99.90
2022-07-27T08:08:31.830Z,99.90
2022-07-27T08:10:59.834Z,99.90
2022-07-27T08:13:29.027Z,99.90
2022-07-27T08:15:57.248Z,99.90
2022-07-27T08:18:25.485Z,99.90
2022-07-27T08:20:53.741Z,99.90
2022-07-27T08:23:21.904Z,99.90
2022-07-27T08:25:50.089Z,99.90
2022-07-27T08:28:18.419Z,99.90
2022-07-27T08:30:49.450Z,99.90
2022-07-27T08:33:26.824Z,99.90
2022-07-27T08:35:54.794Z,99.90
2022-07-27T08:38:28.113Z,99.90
2022-07-27T08:40:56.809Z,99.90
2022-07-27T08:43:25.771Z,99.90
2022-07-27T08:45:57.279Z,99.90
2022-07-27T08:48:26.668Z,99.90
2022-07-27T08:50:55.092Z,99.90
2022-07-27T08:53:24.255Z,99.90
2022-07-27T08:55:52.268Z,99.90
2022-07-27T08:58:20.379Z,99.90
2022-07-27T09:00:51.035Z,99.90
2022-07-27T09:03:23.568Z,98.70
2022-07-27T09:05:53.406Z,99.10
2022-07-27T09:08:24.774Z,98.50
2022-07-27T09:10:55.256Z,98.30
2022-07-27T09:13:25.865Z,99.00
2022-07-27T09:18:45.529Z,98.00
2022-07-27T09:21:16.040Z,98.50
2022-07-27T09:23:49.966Z,96.50
2022-07-27T09:26:36.080Z,98.60
2022-07-27T09:29:07.197Z,98.30
2022-07-27T09:31:43.054Z,98.10
2022-07-27T09:34:13.859Z,96.00
2022-07-27T09:37:00.326Z,91.40
2022-07-27T09:39:29.849Z,91.20
2022-07-27T09:42:01.321Z,91.40
2022-07-27T09:44:42.667Z,90.40
2022-07-27T09:47:23.038Z,90.70
2022-07-27T09:49:52.514Z,91.60
2022-07-27T09:52:25.543Z,92.60
2022-07-27T09:54:57.643Z,90.20
2022-07-27T09:57:26.219Z,91.30
2022-07-27T10:00:16.475Z,89.70
2022-07-27T10:02:45.245Z,85.30
2022-07-27T10:05:18.235Z,87.60
2022-07-27T10:07:46.612Z,88.00
2022-07-27T10:10:15.415Z,89.00
2022-07-27T10:12:46.840Z,83.50
2022-07-27T10:15:17.503Z,85.10
2022-07-27T10:17:46.299Z,86.40
2022-07-27T10:20:20.208Z,86.00
2022-07-27T10:22:53.315Z,87.80
2022-07-27T10:25:22.315Z,88.60
2022-07-27T10:28:08.219Z,86.60
2022-07-27T10:30:36.257Z,89.60
2022-07-27T10:33:13.981Z,87.50
2022-07-27T10:35:44.125Z,88.20
2022-07-27T10:38:15.434Z,86.20
2022-07-27T10:40:44.278Z,86.90
2022-07-27T10:43:19.945Z,87.10
2022-07-27T10:46:01.375Z,87.90
2022-07-27T10:48:40.545Z,90.50
2022-07-27T10:51:16.100Z,85.70
2022-07-27T10:56:46.891Z,88.00
2022-07-27T10:59:15.407Z,84.20
2022-07-27T11:01:58.073Z,86.50
2022-07-27T11:04:27.308Z,86.70
2022-07-27T11:10:05.863Z,82.20
2022-07-27T11:12:34.440Z,82.60
2022-07-27T11:15:03.038Z,84.50
2022-07-27T11:17:58.172Z,82.00
2022-07-27T11:20:25.906Z,82.20
2022-07-27T11:23:51.050Z,83.50
2022-07-27T11:25:58.709Z,83.50
2022-07-27T11:28:31.077Z,80.40
2022-07-27T11:30:59.167Z,80.70
2022-07-27T11:33:27.490Z,80.70
2022-07-27T11:35:57.847Z,79.70
2022-07-27T11:38:27.704Z,79.50
2022-07-27T11:41:08.053Z,80.00
2022-07-27T11:43:45.401Z,79.40
2022-07-27T11:46:16.202Z,80.20
2022-07-27T11:49:17.983Z,78.30
2022-07-27T11:51:43.818Z,78.50
2022-07-27T11:54:14.710Z,77.90
2022-07-27T11:56:46.020Z,76.30
2022-07-27T11:59:16.819Z,77.40
2022-07-27T12:01:52.300Z,77.20
2022-07-27T12:04:26.382Z,75.20
2022-07-27T12:07:03.237Z,76.00
2022-07-27T12:09:38.288Z,76.50
2022-07-27T12:12:14.236Z,78.40
2022-07-27T12:14:46.907Z,77.30
2022-07-27T12:17:19.167Z,78.10
2022-07-27T12:19:56.118Z,77.40
2022-07-27T12:22:27.630Z,77.50
2022-07-27T12:25:02.081Z,77.40
2022-07-27T12:27:30.664Z,78.70
2022-07-27T12:30:05.770Z,77.60
2022-07-27T12:32:37.479Z,76.80
2022-07-27T12:35:23.951Z,74.30
2022-07-27T12:38:00.041Z,73.40
2022-07-27T12:40:31.138Z,73.80
2022-07-27T12:43:01.119Z,71.40
2022-07-27T12:45:34.505Z,68.70
2022-07-27T12:48:10.221Z,67.20
2022-07-27T12:50:39.108Z,67.60
2022-07-27T12:53:07.509Z,69.00
2022-07-27T12:55:38.106Z,70.30
2022-07-27T12:58:06.140Z,69.20
2022-07-27T13:00:34.490Z,70.30
2022-07-27T13:03:03.989Z,73.50
2022-07-27T13:05:32.722Z,72.20
2022-07-27T13:08:01.257Z,73.30
2022-07-27T13:10:29.381Z,72.20
2022-07-27T13:12:59.187Z,72.60
2022-07-27T13:15:28.499Z,73.40
2022-07-27T13:18:00.150Z,71.50
2022-07-27T13:20:28.525Z,68.90
2022-07-27T13:22:56.675Z,70.50
2022-07-27T13:25:25.238Z,71.20
2022-07-27T13:27:53.302Z,72.20
2022-07-27T13:30:23.097Z,69.00
2022-07-27T13:32:51.044Z,68.40
2022-07-27T13:35:19.044Z,66.80
2022-07-27T13:37:46.994Z,69.20
2022-07-27T13:40:15.955Z,68.90
2022-07-27T13:42:44.286Z,68.70
2022-07-27T13:45:12.880Z,64.80
2022-07-27T13:47:42.746Z,64.60
2022-07-27T13:50:18.332Z,64.20
2022-07-27T13:52:47.586Z,65.60
2022-07-27T13:55:16.551Z,64.50
2022-07-27T13:57:45.500Z,66.30
2022-07-27T14:00:15.157Z,63.80
2022-07-27T14:02:46.172Z,65.30
2022-07-27T14:05:14.821Z,68.70
2022-07-27T14:07:45.109Z,67.90
2022-07-27T14:10:31.361Z,62.50
2022-07-27T14:13:08.158Z,62.30
2022-07-27T14:15:50.488Z,62.20
2022-07-27T14:18:27.474Z,62.10
2022-07-27T14:20:56.332Z,64.10
2022-07-27T14:23:25.132Z,64.40
2022-07-27T14:25:53.679Z,63.00
2022-07-27T14:28:21.800Z,62.00
2022-07-27T14:30:50.395Z,60.50
2022-07-27T14:33:18.859Z,60.30
2022-07-27T14:35:48.901Z,60.10
2022-07-27T14:38:27.968Z,61.00
2022-07-27T14:41:01.059Z,61.90
2022-07-27T14:43:29.780Z,66.00
2022-07-27T14:45:58.154Z,64.00
2022-07-27T14:48:48.551Z,67.00
2022-07-27T14:51:15.730Z,64.20
2022-07-27T14:53:43.635Z,64.00
2022-07-27T14:56:11.579Z,65.10
2022-07-27T14:58:39.707Z,65.60
2022-07-27T15:01:08.011Z,65.70
2022-07-27T15:03:36.226Z,64.60
2022-07-27T15:06:04.404Z,65.10
2022-07-27T15:08:33.837Z,66.30
2022-07-27T15:11:01.768Z,66.40
2022-07-27T15:13:29.753Z,66.30
2022-07-27T15:15:58.198Z,66.00
2022-07-27T15:18:26.424Z,67.20
2022-07-27T15:20:54.473Z,64.90
2022-07-27T15:23:22.342Z,65.20
2022-07-27T15:25:51.762Z,65.00
2022-07-27T15:28:19.915Z,65.90
2022-07-27T15:30:48.754Z,68.00
2022-07-27T15:33:16.712Z,67.80
2022-07-27T15:35:44.656Z,66.40
2022-07-27T15:38:12.656Z,67.90
2022-07-27T15:40:42.327Z,68.00
2022-07-27T15:43:13.755Z,68.40
2022-07-27T15:45:43.279Z,67.20
2022-07-27T15:48:12.689Z,66.50
2022-07-27T15:50:42.807Z,67.70
2022-07-27T15:53:12.125Z,67.10
2022-07-27T15:55:40.261Z,67.40
2022-07-27T15:58:09.132Z,68.10
2022-07-27T16:00:41.191Z,66.70
2022-07-27T16:03:10.587Z,67.10
2022-07-27T16:05:39.070Z,65.40
2022-07-27T16:08:09.642Z,66.40
2022-07-27T16:10:38.177Z,66.60
2022-07-27T16:13:06.610Z,64.70
2022-07-27T16:15:52.578Z,66.00
2022-07-27T16:18:22.529Z,66.00
2022-07-27T16:20:50.515Z,66.40
2022-07-27T16:23:21.637Z,65.60
2022-07-27T16:26:08.297Z,65.60
2022-07-27T16:28:39.462Z,66.30
2022-07-27T16:31:10.458Z,66.60
2022-07-27T16:33:40.124Z,68.00
2022-07-27T16:36:09.170Z,67.20
2022-07-27T16:38:37.189Z,67.30
2022-07-27T16:41:07.437Z,68.50
2022-07-27T16:43:37.986Z,65.40
2022-07-27T16:46:07.719Z,66.30
2022-07-27T16:48:42.271Z,67.30
2022-07-27T16:51:13.497Z,67.20
2022-07-27T16:53:43.549Z,68.30
2022-07-27T16:56:12.096Z,68.40
2022-07-27T16:58:40.446Z,68.20
2022-07-27T17:01:09.479Z,65.10
2022-07-27T17:03:37.831Z,65.10
2022-07-27T17:06:07.189Z,67.30
2022-07-27T17:08:37.273Z,65.60
2022-07-27T17:11:06.702Z,66.00
2022-07-27T17:13:35.229Z,67.10
2022-07-27T17:16:03.897Z,66.50
2022-07-27T17:18:38.954Z,66.10
2022-07-27T17:21:09.361Z,66.60
2022-07-27T17:23:39.895Z,67.40
2022-07-27T17:26:08.833Z,66.10
2022-07-27T17:28:39.298Z,66.90
2022-07-27T17:31:08.814Z,67.50
2022-07-27T17:33:37.077Z,68.00
2022-07-27T17:36:08.399Z,69.20
2022-07-27T17:38:41.594Z,69.00
2022-07-27T17:41:09.499Z,68.90
2022-07-27T17:43:38.781Z,69.50
2022-07-27T17:46:07.550Z,68.90
2022-07-27T17:48:35.867Z,69.20
2022-07-27T17:51:03.939Z,70.30
2022-07-27T17:53:31.860Z,69.80
2022-07-27T17:56:02.726Z,70.10
2022-07-27T17:58:30.843Z,69.80
2022-07-27T18:00:58.942Z,70.80
2022-07-27T18:03:26.973Z,70.30
2022-07-27T18:05:55.183Z,70.60
2022-07-27T18:08:23.154Z,71.40
2022-07-27T18:10:52.254Z,72.30
2022-07-27T18:13:21.649Z,72.80
2022-07-27T18:15:50.720Z,73.80
2022-07-27T18:18:22.010Z,73.40
2022-07-27T18:20:52.315Z,74.00
2022-07-27T18:23:20.815Z,75.90
2022-07-27T18:25:49.244Z,75.90
2022-07-27T18:28:18.939Z,75.90
2022-07-27T18:30:51.125Z,77.30
2022-07-27T18:33:19.737Z,80.50
2022-07-27T18:35:48.306Z,81.30
2022-07-27T18:38:16.796Z,82.50
2022-07-27T18:40:48.937Z,83.70
2022-07-27T18:43:17.523Z,85.70
2022-07-27T18:45:45.713Z,87.70
2022-07-27T18:48:15.753Z,88.00
2022-07-27T18:50:43.697Z,89.50
2022-07-27T18:53:11.688Z,90.90
2022-07-27T18:55:40.808Z,91.20
2022-07-27T18:58:08.811Z,91.50
2022-07-27T19:00:36.742Z,92.90
2022-07-27T19:03:04.969Z,94.00
2022-07-27T19:05:41.678Z,95.00
2022-07-27T19:08:13.116Z,97.30
2022-07-27T19:10:41.922Z,98.80
2022-07-27T19:13:10.573Z,99.90
2022-07-27T19:15:39.889Z,99.90
2022-07-27T19:18:08.409Z,99.90
2022-07-27T19:20:37.875Z,99.90
2022-07-27T19:23:06.327Z,99.90
2022-07-27T19:25:34.767Z,99.90
2022-07-27T19:28:03.280Z,99.90
2022-07-27T19:30:31.340Z,99.90
2022-07-27T19:32:59.316Z,99.90
2022-07-27T19:35:27.553Z,99.90
2022-07-27T19:37:57.050Z,99.90
2022-07-27T19:40:44.945Z,99.90
2022-07-27T19:43:14.134Z,99.90
2022-07-27T19:45:42.724Z,99.90
2022-07-27T19:48:10.946Z,99.90
2022-07-27T19:50:40.020Z,99.90
2022-07-27T19:53:10.060Z,99.90
2022-07-27T19:55:38.133Z,99.90
2022-07-27T19:58:06.026Z,99.90
2022-07-27T20:00:33.906Z,99.90
2022-07-27T20:03:02.086Z,99.90
2022-07-27T20:05:30.278Z,99.90
2022-07-27T20:07:58.181Z,99.90
2022-07-27T20:10:27.570Z,99.90
2022-07-27T20:12:55.831Z,99.90
2022-07-27T20:15:23.902Z,99.90
2022-07-27T20:17:52.114Z,99.90
2022-07-27T20:20:20.705Z,99.90
2022-07-27T20:22:49.045Z,99.90
2022-07-27T20:25:18.621Z,99.90
2022-07-27T20:27:48.637Z,99.90
2022-07-27T20:30:18.094Z,99.90
2022-07-27T20:32:46.513Z,99.90
2022-07-27T20:35:14.868Z,99.90
2022-07-27T20:37:42.991Z,99.90
2022-07-27T20:40:12.570Z,99.90
2022-07-27T20:42:41.330Z,99.90
2022-07-27T20:45:14.518Z,99.90
2022-07-27T20:47:43.199Z,99.90
2022-07-27T20:50:13.039Z,99.90
2022-07-27T20:52:41.982Z,99.90
2022-07-27T20:55:11.097Z,99.90
2022-07-27T20:57:39.450Z,99.90
2022-07-27T21:00:10.602Z,99.90
2022-07-27T21:02:38.831Z,99.90
2022-07-27T21:05:08.597Z,99.90
2022-07-27T21:07:36.451Z,99.90
2022-07-27T21:10:05.118Z,99.90
2022-07-27T21:12:33.205Z,99.90
2022-07-27T21:15:01.471Z,99.90
2022-07-27T21:17:31.318Z,99.90
2022-07-27T21:19:59.103Z,99.90
2022-07-27T21:22:27.145Z,99.90
2022-07-27T21:24:55.212Z,99.90
2022-07-27T21:27:23.719Z,99.90
2022-07-27T21:29:52.723Z,99.90
2022-07-27T21:32:20.824Z,99.90
2022-07-27T21:34:50.425Z,99.90
2022-07-27T21:37:18.559Z,99.90
2022-07-27T21:39:46.670Z,99.90
2022-07-27T21:42:14.650Z,99.90
2022-07-27T21:44:42.610Z,99.90
2022-07-27T21:47:14.098Z,99.90
2022-07-27T21:49:42.641Z,99.90
2022-07-27T21:52:12.338Z,99.90
2022-07-27T21:54:40.515Z,99.90
2022-07-27T21:57:08.481Z,99.90
2022-07-27T21:59:36.555Z,99.90
2022-07-27T22:02:04.648Z,99.90
2022-07-27T22:04:32.510Z,99.90
2022-07-27T22:07:00.584Z,99.90
2022-07-27T22:09:30.344Z,99.90
2022-07-27T22:11:58.414Z,99.90
2022-07-27T22:14:26.361Z,99.90
2022-07-27T22:16:54.357Z,99.90
2022-07-27T22:19:22.521Z,99.90
2022-07-27T22:21:50.496Z,99.90
2022-07-27T22:24:18.483Z,99.90
2022-07-27T22:26:49.166Z,99.90
2022-07-27T22:29:17.275Z,99.90
2022-07-27T22:31:45.126Z,99.90
2022-07-27T22:34:13.270Z,99.90
2022-07-27T22:36:41.471Z,99.90
2022-07-27T22:39:09.429Z,99.90
2022-07-27T22:41:37.492Z,99.90
2022-07-27T22:44:06.910Z,99.90
2022-07-27T22:46:34.935Z,99.90
2022-07-27T22:49:03.078Z,99.90
2022-07-27T22:51:49.868Z,99.90
2022-07-27T22:54:18.960Z,99.90
2022-07-27T22:56:47.179Z,99.90
2022-07-27T22:59:16.437Z,99.90
2022-07-27T23:01:47.317Z,99.90
2022-07-27T23:04:17.438Z,99.90
2022-07-27T23:06:45.614Z,99.90
2022-07-27T23:09:13.797Z,99.90
2022-07-27T23:11:42.296Z,99.90
2022-07-27T23:14:10.570Z,99.90
2022-07-27T23:16:40.835Z,99.90
2022-07-27T23:19:09.635Z,99.90
2022-07-27T23:21:38.214Z,99.90
2022-07-27T23:24:07.070Z,99.90
2022-07-27T23:26:36.054Z,99.90
2022-07-27T23:29:04.221Z,99.90
2022-07-27T23:31:32.235Z,99.90
2022-07-27T23:34:01.621Z,99.90
2022-07-27T23:36:29.625Z,99.90
2022-07-27T23:38:57.610Z,99.90
2022-07-27T23:41:32.603Z,99.90
2022-07-27T23:44:00.576Z,99.90
2022-07-27T23:46:28.737Z,99.90
2022-07-27T23:48:56.790Z,99.90
2022-07-27T23:51:26.455Z,99.90
2022-07-27T23:53:54.501Z,99.90
2022-07-27T23:56:22.431Z,99.90
2022-07-27T23:58:50.561Z,99.90
